Aeroporto :
LOGIN :

Iscrizione | Disclaimer

   EN    FR    IT 

 










Sommario :    VFR   VFR Marginale   IFR   IFR Intensivo   IFR Molto Intensivo
Visibilità : 
Base nubi : 
>= 8 km
>= 3000ft
5 / 8 km
1000 / 3000 ft
1500m / 5 km
500 / 1000 ft
800 / 1500m
200 / 500 ft
< 800m
< 200 ft
Simboli :   Temporali  Nebbia  Neve Forte  Precipitazioni Forti  Vento > 20 kt
SIGMETs :   Varie  Temporali  Ghiacco  Turbolenza  Onda orograficha  Ceneri Vulcaniche






- Altitudine del aeroporto : 76 ft
- Codice IATA : KID


ESMK - Kristianstad

ULTIMO METAR :
  • 141420Z 17004KT 9999 FEW030 BKN043 07/05 Q1011

METARs OBSOLETI :
  • 141350Z 20004KT 9999 FEW017 BKN029 07/05 Q1011
  • 141320Z 19005KT 9999 BKN020 08/05 Q1011
  • 141250Z 17003KT 9999 SCT028 BKN035 09/05 Q1010
  • 141220Z 20006KT 9999 FEW015 SCT037 09/05 Q1010
  • 141150Z 20006KT 9999 FEW020 BKN033 08/05 Q1010

TAF TAF ESMK
Valido dal 14 a 15 ore il 14 a 21 ore UTC


141406Z 1415/1421 18005KT 7000 SCT020
TEMPO 1415/1418 BKN010
BECMG 1417/1420 08006KT



MetMap, La meteo Aeronautica in un colpo d'occhio ! - Copyright ORBIFLY Dicembre 2007 - Disclaimer

ORBIFLY MET'MAP TEAM :

Programmazione e sviluppo : Alexandra Zaïnal
Concezione e sviluppo : Baudouin d'Aumeries
Co-Programmazione e sviluppo : Marc-Olivier Méhu
Supporto tecnico e logistico : Manuel Goepfert
Aiuto per la traduzione : Arnaldo La Scala

Contatto : metmap@orbifly.com




FONTI E CREDITI :

   NOAA